Shirley, Massachusetts
Current Conditions -  °F | °C
As of 3:52 PM on Tuesday 21 Oct 2014 (Local Time) from KFIT Reporting Station
Broken Clouds Broken Clouds  
Wind Chill: 59°   Ceiling: 1900
Heat Index: 59°   Visibility: 10mi
Dew Point: 51°   Wind: 8mph
Humidity: 75%   Direction: 360°N
Pressure: 29.92"   Gusts: NA
Location:  42.54°N, 71.65°W
Report Text: KFIT 211952Z AUTO 36007KT 10SM BKN019 15/11 A2992 RMK AO2 SLP134 T01500106
Loading
Personal Weather Stations






























Interactive Weather Map
Tropical Storm Tracking
New forecast layout! Learn more

10-Day Weather Forecast

Advertisements
Track Severe Weather on mobile